Sunday, November 23, 2014, 2:01 AM EST

KSBY, Salisbury-wicomico Cty Reg

Location: Salisbury, MD, United States Lat: 38.333
Local Time: 2:01 AM EST ( 7:01 GMT) Lon: -75.5
Time Zone: US/Eastern Elev: 52 ft

Show me the last for .
Show Decoded

2014-11-23 00:54 METAR KSBY 230554Z AUTO 20005KT 10SM CLR 01/M03 A3029 RMK AO2 SLP260 T00111028
                 10044 20006 58010 =
2014-11-22 23:54 METAR KSBY 230454Z AUTO 20007KT 10SM CLR 01/M03 A3030 RMK AO2 SLP264 T00061028
                 401001078 =
2014-11-22 22:54 METAR KSBY 230354Z AUTO 21007KT 10SM CLR 03/M03 A3032 RMK AO2 SLP270 T00281028 =
2014-11-22 21:54 METAR KSBY 230254Z 20005KT 10SM CLR 02/M04 A3032 =
2014-11-22 20:54 METAR KSBY 230154Z 20005KT 10SM CLR 02/M04 A3033 RMK AO2 SLP272 T00221044 =
2014-11-22 19:54 METAR KSBY 230054Z 21004KT 10SM CLR 04/M04 A3033 =
2014-11-22 18:54 METAR KSBY 222354Z 18005KT 10SM CLR 04/M04 A3034 RMK AO2 SLP276 T00391044 10100
                 20039 56016 =
2014-11-22 17:54 METAR KSBY 222254Z 20007KT 10SM CLR 04/M04 A3035 RMK AO2 SLP280 T00441044 =
2014-11-22 16:54 METAR KSBY 222154Z 20008KT 10SM CLR 06/M04 A3037 =
2014-11-22 15:54 METAR KSBY 222054Z 21008KT 10SM CLR 08/M06 A3038 RMK AO2 SLP292 T00781061 56017
                 =
2014-11-22 14:54 METAR KSBY 221954Z 20011KT 10SM CLR 09/M09 A3039 =
2014-11-22 13:54 METAR KSBY 221854Z 20010G19KT 10SM CLR 10/M07 A3040 RMK AO2 SLP298 T01001072 =
2014-11-22 12:54 METAR KSBY 221754Z 21009KT 10SM CLR 09/M05 A3044 RMK AO2 SLP309 T00941050 10094
                 21072 58036 =
2014-11-22 11:54 METAR KSBY 221654Z 23011KT 10SM CLR 09/M06 A3048 RMK AO2 SLP323 T00891056 =
2014-11-22 10:54 METAR KSBY 221554Z 20011KT 10SM CLR 07/M07 A3052 RMK AO2 SLP338 T00721072 =
2014-11-22 09:54 METAR KSBY 221454Z 20008KT 10SM CLR 05/M09 A3054 RMK AO2 SLP345 T00501089 58003
                 =
2014-11-22 08:54 METAR KSBY 221354Z 16004KT 10SM CLR 02/M08 A3055 RMK AO2 SLP347 T00171083 =
2014-11-22 07:54 METAR KSBY 221254Z 00000KT 10SM CLR M04/M08 A3056 RMK AO2 SLP351 T10441083 =
2014-11-22 06:54 METAR KSBY 221154Z 00000KT 10SM CLR M07/M11 A3055 =
2014-11-22 05:54 METAR KSBY 221054Z 00000KT 10SM CLR M07/M11 A3054 RMK AO2 SLP345 T10721106 =
2014-11-22 04:54 METAR KSBY 220954Z AUTO 00000KT 10SM CLR M07/M11 A3055 RMK AO2 SLP348 T10721106
                 =
2014-11-22 03:54 METAR KSBY 220854Z AUTO 00000KT 10SM CLR M07/M11 A3056 RMK AO2 SLP350 T10671106
                 58000 =
2014-11-22 02:54 METAR KSBY 220754Z AUTO 00000KT 10SM CLR M06/M11 A3057 =

Support USWX by starting your Amazon purchase here.